createdAt,value
2019-05-21T00:02:02.009Z,13.80
2019-05-21T00:04:30.482Z,13.80
2019-05-21T00:06:58.879Z,13.80
2019-05-21T00:09:27.278Z,13.80
2019-05-21T00:11:55.703Z,13.80
2019-05-21T00:14:24.098Z,13.80
2019-05-21T00:16:52.525Z,13.90
2019-05-21T00:19:20.932Z,13.90
2019-05-21T00:21:49.355Z,13.90
2019-05-21T00:24:18.140Z,13.90
2019-05-21T00:26:46.542Z,13.90
2019-05-21T00:29:51.185Z,13.80
2019-05-21T00:32:56.027Z,13.90
2019-05-21T00:36:00.870Z,13.90
2019-05-21T00:39:05.974Z,13.80
2019-05-21T00:42:02.727Z,13.80
2019-05-21T00:44:39.976Z,13.70
2019-05-21T00:47:09.835Z,13.70
2019-05-21T00:49:38.223Z,13.70
2019-05-21T00:52:08.999Z,13.70
2019-05-21T00:54:37.083Z,13.80
2019-05-21T00:57:05.658Z,13.80
2019-05-21T00:59:34.045Z,13.80
2019-05-21T01:02:02.451Z,13.80
2019-05-21T01:04:30.901Z,13.70
2019-05-21T01:06:59.321Z,13.80
2019-05-21T01:09:27.786Z,13.80
2019-05-21T01:11:56.209Z,13.80
2019-05-21T01:14:24.612Z,13.80
2019-05-21T01:16:53.006Z,13.70
2019-05-21T01:19:21.416Z,13.70
2019-05-21T01:21:49.813Z,13.70
2019-05-21T01:24:18.228Z,13.70
2019-05-21T01:26:46.635Z,13.60
2019-05-21T01:29:15.028Z,13.60
2019-05-21T01:31:43.434Z,13.60
2019-05-21T01:34:11.848Z,13.60
2019-05-21T01:36:40.257Z,13.60
2019-05-21T01:39:08.736Z,13.60
2019-05-21T01:41:37.130Z,13.60
2019-05-21T01:44:05.574Z,13.50
2019-05-21T01:46:33.975Z,13.50
2019-05-21T01:49:02.457Z,13.50
2019-05-21T01:51:30.851Z,13.50
2019-05-21T01:53:59.254Z,13.40
2019-05-21T01:56:27.664Z,13.40
2019-05-21T01:58:56.086Z,13.40
2019-05-21T02:01:24.494Z,13.40
2019-05-21T02:03:52.906Z,13.40
2019-05-21T02:06:21.780Z,13.40
2019-05-21T02:08:50.211Z,13.50
2019-05-21T02:11:18.615Z,13.40
2019-05-21T02:13:47.017Z,13.40
2019-05-21T02:16:15.429Z,13.40
2019-05-21T02:18:43.839Z,13.40
2019-05-21T02:21:12.244Z,13.40
2019-05-21T02:23:40.645Z,13.30
2019-05-21T02:26:09.053Z,13.40
2019-05-21T02:28:37.462Z,13.40
2019-05-21T02:31:05.868Z,13.40
2019-05-21T02:33:34.283Z,13.30
2019-05-21T02:36:02.683Z,13.30
2019-05-21T02:38:31.098Z,13.30
2019-05-21T02:40:59.504Z,13.30
2019-05-21T02:43:27.979Z,13.30
2019-05-21T02:45:56.382Z,13.20
2019-05-21T02:48:24.864Z,13.30
2019-05-21T02:50:53.260Z,13.20
2019-05-21T02:53:21.680Z,13.20
2019-05-21T02:55:50.075Z,13.20
2019-05-21T02:58:18.495Z,13.20
2019-05-21T03:01:03.804Z,13.20
2019-05-21T03:03:33.938Z,13.20
2019-05-21T03:06:13.376Z,13.20
2019-05-21T03:08:32.485Z,13.10
2019-05-21T03:11:00.908Z,13.20
2019-05-21T03:13:29.379Z,13.20
2019-05-21T03:15:58.053Z,13.10
2019-05-21T03:18:26.469Z,13.20
2019-05-21T03:20:54.865Z,13.10
2019-05-21T03:23:23.269Z,13.20
2019-05-21T03:25:51.688Z,13.20
2019-05-21T03:28:20.150Z,13.20
2019-05-21T03:30:48.568Z,13.20
2019-05-21T03:33:17.372Z,13.30
2019-05-21T03:35:45.801Z,13.30
2019-05-21T03:38:14.207Z,13.30
2019-05-21T03:40:42.616Z,13.30
2019-05-21T03:43:11.033Z,13.30
2019-05-21T03:45:39.471Z,13.30
2019-05-21T03:48:07.993Z,13.30
2019-05-21T03:50:36.411Z,13.30
2019-05-21T03:53:04.810Z,13.20
2019-05-21T03:55:33.987Z,13.30
2019-05-21T03:58:02.424Z,13.30
2019-05-21T04:00:30.943Z,13.30
2019-05-21T04:02:59.352Z,13.30
2019-05-21T04:05:27.828Z,13.30
2019-05-21T04:07:56.356Z,13.30
2019-05-21T04:10:25.270Z,13.30
2019-05-21T04:13:00.846Z,13.30
2019-05-21T04:15:30.235Z,13.40
2019-05-21T04:18:03.203Z,13.40
2019-05-21T04:20:31.625Z,13.40
2019-05-21T04:23:00.029Z,13.30
2019-05-21T04:25:28.441Z,13.20
2019-05-21T04:27:56.844Z,13.20
2019-05-21T04:30:25.324Z,13.20
2019-05-21T04:32:53.731Z,13.10
2019-05-21T04:35:22.130Z,13.20
2019-05-21T04:37:50.551Z,13.20
2019-05-21T04:40:19.032Z,13.20
2019-05-21T04:42:47.435Z,13.20
2019-05-21T04:45:15.988Z,13.20
2019-05-21T04:47:44.397Z,13.20
2019-05-21T04:50:12.880Z,13.30
2019-05-21T04:52:41.288Z,13.20
2019-05-21T04:55:10.139Z,13.20
2019-05-21T04:57:38.545Z,13.20
2019-05-21T05:00:07.707Z,13.20
2019-05-21T05:02:36.128Z,13.10
2019-05-21T05:05:05.773Z,13.10
2019-05-21T05:07:34.167Z,13.10
2019-05-21T05:10:02.658Z,13.10
2019-05-21T05:12:31.050Z,13.10
2019-05-21T05:14:59.463Z,13.10
2019-05-21T05:17:27.891Z,13.10
2019-05-21T05:19:56.350Z,13.10
2019-05-21T05:22:24.751Z,13.00
2019-05-21T05:24:53.164Z,13.10
2019-05-21T05:27:21.561Z,13.20
2019-05-21T05:29:49.961Z,13.20
2019-05-21T05:32:18.390Z,13.10
2019-05-21T05:34:46.854Z,13.10
2019-05-21T05:37:15.246Z,13.10
2019-05-21T05:39:43.645Z,13.10
2019-05-21T05:42:12.052Z,13.10
2019-05-21T05:44:40.467Z,13.10
2019-05-21T05:47:08.873Z,13.10
2019-05-21T05:49:38.921Z,13.10
2019-05-21T05:52:07.320Z,13.10
2019-05-21T05:54:35.710Z,13.10
2019-05-21T05:57:04.182Z,13.10
2019-05-21T05:59:32.579Z,13.10
2019-05-21T06:02:01.000Z,13.20
2019-05-21T06:04:30.567Z,13.20
2019-05-21T06:06:59.188Z,13.20
2019-05-21T06:09:27.581Z,13.20
2019-05-21T06:11:55.988Z,13.20
2019-05-21T06:14:24.391Z,13.10
2019-05-21T06:16:52.862Z,13.10
2019-05-21T06:19:21.259Z,13.10
2019-05-21T06:21:49.670Z,13.00
2019-05-21T06:24:18.068Z,13.00
2019-05-21T06:26:46.475Z,13.00
2019-05-21T06:29:14.872Z,12.90
2019-05-21T06:31:43.272Z,13.00
2019-05-21T06:34:11.676Z,13.00
2019-05-21T06:36:40.085Z,13.10
2019-05-21T06:39:08.474Z,13.10
2019-05-21T06:41:36.895Z,13.00
2019-05-21T06:44:05.419Z,13.00
2019-05-21T06:46:34.910Z,13.00
2019-05-21T06:49:03.364Z,13.00
2019-05-21T06:51:31.829Z,13.00
2019-05-21T06:54:00.335Z,13.00
2019-05-21T06:56:28.755Z,13.00
2019-05-21T06:58:57.146Z,12.90
2019-05-21T07:01:28.587Z,13.00
2019-05-21T07:03:55.687Z,13.00
2019-05-21T07:06:24.173Z,13.00
2019-05-21T07:08:52.567Z,13.00
2019-05-21T07:11:21.043Z,12.90
2019-05-21T07:13:49.434Z,12.90
2019-05-21T07:16:17.831Z,12.90
2019-05-21T07:18:46.244Z,12.90
2019-05-21T07:21:14.711Z,12.90
2019-05-21T07:23:43.116Z,12.90
2019-05-21T07:26:11.829Z,12.90
2019-05-21T07:28:40.263Z,12.90
2019-05-21T07:31:08.647Z,12.90
2019-05-21T07:33:37.060Z,12.80
2019-05-21T07:36:05.467Z,12.80
2019-05-21T07:38:51.575Z,12.80
2019-05-21T07:41:04.127Z,12.90
2019-05-21T07:43:32.538Z,13.10
2019-05-21T07:46:00.935Z,13.10
2019-05-21T07:48:29.421Z,13.10
2019-05-21T07:50:57.806Z,13.10
2019-05-21T07:53:26.218Z,13.10
2019-05-21T07:55:54.625Z,13.20
2019-05-21T07:58:23.068Z,13.00
2019-05-21T08:00:51.454Z,13.10
2019-05-21T08:03:19.883Z,13.00
2019-05-21T08:05:48.336Z,13.10
2019-05-21T08:08:16.744Z,13.20
2019-05-21T08:10:45.133Z,13.10
2019-05-21T08:13:13.534Z,13.20
2019-05-21T08:15:41.963Z,13.20
2019-05-21T08:18:10.445Z,13.10
2019-05-21T08:20:38.919Z,13.00
2019-05-21T08:23:07.333Z,13.10
2019-05-21T08:25:35.710Z,13.00
2019-05-21T08:28:04.115Z,13.00
2019-05-21T08:30:32.522Z,13.10
2019-05-21T08:33:00.928Z,13.10
2019-05-21T08:35:29.317Z,13.00
2019-05-21T08:37:57.710Z,13.00
2019-05-21T08:40:26.205Z,13.10
2019-05-21T08:42:54.607Z,13.10
2019-05-21T08:45:23.069Z,13.20
2019-05-21T08:47:51.460Z,13.10
2019-05-21T08:50:19.933Z,13.10
2019-05-21T08:52:48.328Z,13.20
2019-05-21T08:55:16.747Z,13.10
2019-05-21T08:57:45.136Z,13.10
2019-05-21T09:00:16.041Z,13.10
2019-05-21T09:02:44.431Z,13.00
2019-05-21T09:05:13.108Z,13.00
2019-05-21T09:07:41.495Z,13.00
2019-05-21T09:10:10.754Z,12.90
2019-05-21T09:12:39.151Z,13.00
2019-05-21T09:15:08.098Z,13.00
2019-05-21T09:17:36.495Z,13.00
2019-05-21T09:20:09.104Z,13.00
2019-05-21T09:22:37.571Z,13.10
2019-05-21T09:25:07.241Z,13.10
2019-05-21T09:27:36.475Z,13.20
2019-05-21T09:30:09.099Z,13.20
2019-05-21T09:32:37.571Z,13.20
2019-05-21T09:35:07.712Z,13.20
2019-05-21T09:37:36.121Z,13.30
2019-05-21T09:40:09.725Z,13.30
2019-05-21T09:42:38.238Z,13.40
2019-05-21T09:45:07.810Z,13.30
2019-05-21T09:47:36.201Z,13.30
2019-05-21T09:50:07.468Z,13.30
2019-05-21T09:52:35.861Z,13.30
2019-05-21T09:55:06.398Z,13.30
2019-05-21T09:57:39.602Z,13.40
2019-05-21T10:00:13.517Z,13.40
2019-05-21T10:02:41.966Z,13.40
2019-05-21T10:05:10.605Z,13.50
2019-05-21T10:07:40.677Z,13.50
2019-05-21T10:10:09.627Z,13.50
2019-05-21T10:12:38.015Z,13.60
2019-05-21T10:15:07.558Z,13.70
2019-05-21T10:17:35.933Z,13.70
2019-05-21T10:20:06.016Z,13.70
2019-05-21T10:22:34.407Z,13.60
2019-05-21T10:25:02.813Z,13.70
2019-05-21T10:27:31.229Z,13.70
2019-05-21T10:29:59.690Z,13.70
2019-05-21T10:32:28.178Z,13.70
2019-05-21T10:34:56.570Z,13.70
2019-05-21T10:37:24.971Z,13.80
2019-05-21T10:39:53.362Z,13.80
2019-05-21T10:42:21.770Z,13.80
2019-05-21T10:44:50.170Z,13.90
2019-05-21T10:47:18.582Z,14.00
2019-05-21T10:49:46.973Z,14.00
2019-05-21T10:52:15.560Z,14.00
2019-05-21T10:54:43.945Z,13.90
2019-05-21T10:57:12.427Z,14.00
2019-05-21T10:59:40.810Z,14.00
2019-05-21T11:02:11.039Z,14.00
2019-05-21T11:04:52.956Z,14.10
2019-05-21T11:07:21.419Z,14.10
2019-05-21T11:09:50.009Z,14.10
2019-05-21T11:12:19.368Z,14.20
2019-05-21T11:14:47.756Z,14.20
2019-05-21T11:17:16.543Z,14.20
2019-05-21T11:19:44.948Z,14.10
2019-05-21T11:22:13.412Z,14.10
2019-05-21T11:24:41.794Z,14.10
2019-05-21T11:27:10.198Z,14.10
2019-05-21T11:29:38.679Z,14.20
2019-05-21T11:32:07.074Z,14.20
2019-05-21T11:34:35.847Z,14.30
2019-05-21T11:37:04.457Z,14.20
2019-05-21T11:39:32.893Z,14.20
2019-05-21T11:42:01.288Z,14.10
2019-05-21T11:44:29.707Z,14.10
2019-05-21T11:46:58.097Z,14.10
2019-05-21T11:49:26.514Z,14.20
2019-05-21T11:51:54.902Z,14.30
2019-05-21T11:54:23.316Z,14.30
2019-05-21T11:56:51.719Z,14.20
2019-05-21T11:59:20.156Z,14.30
2019-05-21T12:01:48.543Z,14.30
2019-05-21T12:04:16.961Z,14.40
2019-05-21T12:06:45.686Z,14.40
2019-05-21T12:09:14.346Z,14.30
2019-05-21T12:11:42.722Z,14.20
2019-05-21T12:14:11.129Z,14.30
2019-05-21T12:16:39.525Z,14.20
2019-05-21T12:19:08.634Z,14.20
2019-05-21T12:21:37.210Z,14.20
2019-05-21T12:24:05.615Z,14.20
2019-05-21T12:26:34.016Z,14.20
2019-05-21T12:29:02.445Z,14.20
2019-05-21T12:31:30.930Z,14.20
2019-05-21T12:33:59.382Z,14.30
2019-05-21T12:36:27.850Z,14.30
2019-05-21T12:39:12.715Z,14.30
2019-05-21T12:41:26.382Z,14.40
2019-05-21T12:43:54.777Z,14.50
2019-05-21T12:46:23.175Z,14.50
2019-05-21T12:48:51.578Z,14.60
2019-05-21T12:51:19.987Z,14.60
2019-05-21T12:53:48.387Z,14.70
2019-05-21T12:56:16.787Z,14.70
2019-05-21T12:58:45.195Z,14.80
2019-05-21T13:01:13.605Z,14.80
2019-05-21T13:03:42.033Z,14.60
2019-05-21T13:06:10.418Z,14.50
2019-05-21T13:08:38.894Z,14.50
2019-05-21T13:11:07.673Z,14.40
2019-05-21T13:13:36.088Z,14.50
2019-05-21T13:16:04.710Z,14.60
2019-05-21T13:18:33.117Z,14.40
2019-05-21T13:21:01.514Z,14.30
2019-05-21T13:23:30.082Z,14.40
2019-05-21T13:25:58.503Z,14.40
2019-05-21T13:28:26.994Z,14.50
2019-05-21T13:30:55.461Z,14.40
2019-05-21T13:33:23.922Z,14.40
2019-05-21T13:35:52.328Z,14.40
2019-05-21T13:38:20.799Z,14.20
2019-05-21T13:40:49.450Z,14.20
2019-05-21T13:43:21.034Z,14.10
2019-05-21T13:45:48.056Z,14.10
2019-05-21T13:48:16.463Z,14.10
2019-05-21T13:50:44.860Z,14.00
2019-05-21T13:53:13.277Z,14.10
2019-05-21T13:55:41.751Z,14.10
2019-05-21T13:58:10.150Z,14.00
2019-05-21T14:00:43.019Z,14.00
2019-05-21T14:03:11.464Z,14.10
2019-05-21T14:05:39.917Z,13.90
2019-05-21T14:08:08.326Z,14.00
2019-05-21T14:10:36.986Z,14.10
2019-05-21T14:13:05.710Z,14.10
2019-05-21T14:15:34.506Z,14.10
2019-05-21T14:18:02.892Z,14.10
2019-05-21T14:20:31.294Z,14.10
2019-05-21T14:22:59.708Z,14.10
2019-05-21T14:25:28.115Z,14.20
2019-05-21T14:27:56.537Z,14.10
2019-05-21T14:30:24.994Z,14.10
2019-05-21T14:32:53.394Z,14.20
2019-05-21T14:35:21.820Z,14.10
2019-05-21T14:37:50.215Z,14.00
2019-05-21T14:40:31.197Z,14.00
2019-05-21T14:42:59.382Z,13.90
2019-05-21T14:45:20.018Z,14.00
2019-05-21T14:47:48.406Z,13.90
2019-05-21T14:50:16.958Z,13.80
2019-05-21T14:52:45.359Z,13.80
2019-05-21T14:55:13.831Z,13.80
2019-05-21T14:57:42.219Z,13.80
2019-05-21T15:00:25.549Z,13.70
2019-05-21T15:02:53.923Z,13.60
2019-05-21T15:05:22.394Z,13.60
2019-05-21T15:07:50.852Z,13.70
2019-05-21T15:10:19.277Z,13.70
2019-05-21T15:12:47.681Z,13.70
2019-05-21T15:15:16.403Z,13.70
2019-05-21T15:17:44.962Z,13.70
2019-05-21T15:20:32.057Z,13.70
2019-05-21T15:23:00.447Z,13.70
2019-05-21T15:25:28.868Z,13.60
2019-05-21T15:27:57.247Z,13.60
2019-05-21T15:30:25.662Z,13.70
2019-05-21T15:32:54.051Z,13.70
2019-05-21T15:35:22.458Z,13.70
2019-05-21T15:37:50.849Z,13.60
2019-05-21T15:40:19.591Z,13.60
2019-05-21T15:42:52.703Z,13.70
2019-05-21T15:45:18.189Z,13.90
2019-05-21T15:47:46.566Z,13.90
2019-05-21T15:50:16.132Z,14.00
2019-05-21T15:52:44.536Z,14.00
2019-05-21T15:55:13.087Z,14.00
2019-05-21T15:57:41.488Z,14.00
2019-05-21T16:00:11.738Z,14.10
2019-05-21T16:02:40.138Z,13.90
2019-05-21T16:05:09.383Z,13.90
2019-05-21T16:07:37.780Z,13.90
2019-05-21T16:10:07.035Z,13.90
2019-05-21T16:12:35.430Z,13.90
2019-05-21T16:15:05.437Z,13.90
2019-05-21T16:17:33.910Z,14.00
2019-05-21T16:20:02.397Z,14.00
2019-05-21T16:22:30.888Z,14.00
2019-05-21T16:24:59.291Z,13.90
2019-05-21T16:27:27.699Z,13.90
2019-05-21T16:29:56.087Z,13.90
2019-05-21T16:32:24.554Z,13.90
2019-05-21T16:34:53.056Z,13.90
2019-05-21T16:37:21.626Z,13.80
2019-05-21T16:39:50.028Z,13.80
2019-05-21T16:42:18.436Z,13.70
2019-05-21T16:44:46.837Z,13.70
2019-05-21T16:47:15.516Z,13.60
2019-05-21T16:49:44.072Z,13.60
2019-05-21T16:52:12.551Z,13.60
2019-05-21T16:54:40.958Z,13.60
2019-05-21T16:57:09.347Z,13.60
2019-05-21T16:59:37.821Z,13.70
2019-05-21T17:02:06.408Z,13.70
2019-05-21T17:04:34.871Z,13.60
2019-05-21T17:07:03.292Z,13.70
2019-05-21T17:09:31.699Z,13.70
2019-05-21T17:12:00.593Z,13.70
2019-05-21T17:14:29.086Z,13.70
2019-05-21T17:16:57.497Z,13.60
2019-05-21T17:19:25.915Z,13.50
2019-05-21T17:21:54.330Z,13.40
2019-05-21T17:24:22.727Z,13.40
2019-05-21T17:26:51.287Z,13.40
2019-05-21T17:29:19.682Z,13.40
2019-05-21T17:31:48.088Z,13.30
2019-05-21T17:34:16.538Z,13.30
2019-05-21T17:36:44.927Z,13.20
2019-05-21T17:39:13.319Z,13.20
2019-05-21T17:41:41.721Z,13.10
2019-05-21T17:44:10.122Z,13.20
2019-05-21T17:46:38.537Z,13.20
2019-05-21T17:49:06.932Z,13.20
2019-05-21T17:51:35.436Z,13.20
2019-05-21T17:54:05.755Z,13.20
2019-05-21T17:56:34.149Z,13.10
2019-05-21T17:59:02.596Z,13.10
2019-05-21T18:01:31.529Z,13.10
2019-05-21T18:04:00.531Z,13.10
2019-05-21T18:06:31.177Z,13.10
2019-05-21T18:09:00.224Z,13.10
2019-05-21T18:11:28.753Z,13.10
2019-05-21T18:13:57.407Z,13.10
2019-05-21T18:16:25.817Z,13.10
2019-05-21T18:18:54.355Z,13.10
2019-05-21T18:21:24.088Z,13.10
2019-05-21T18:23:52.534Z,13.10
2019-05-21T18:26:20.939Z,13.10
2019-05-21T18:28:50.958Z,13.20
2019-05-21T18:31:19.743Z,13.20
2019-05-21T18:33:48.345Z,13.20
2019-05-21T18:36:16.831Z,13.20
2019-05-21T18:38:45.296Z,13.10
2019-05-21T18:41:13.775Z,13.10
2019-05-21T18:43:42.339Z,13.10
2019-05-21T18:46:10.810Z,13.10
2019-05-21T18:48:39.223Z,13.10
2019-05-21T18:51:07.694Z,13.20
2019-05-21T18:53:37.230Z,13.10
2019-05-21T18:56:05.667Z,13.10
2019-05-21T18:58:34.329Z,13.10
2019-05-21T19:01:03.091Z,13.10
2019-05-21T19:03:31.534Z,13.10
2019-05-21T19:05:59.989Z,13.00
2019-05-21T19:08:28.575Z,13.00
2019-05-21T19:10:57.058Z,13.00
2019-05-21T19:13:27.103Z,13.00
2019-05-21T19:15:56.582Z,12.90
2019-05-21T19:18:25.171Z,12.90
2019-05-21T19:20:53.691Z,12.80
2019-05-21T19:23:22.237Z,12.90
2019-05-21T19:25:51.361Z,12.90
2019-05-21T19:28:19.915Z,12.80
2019-05-21T19:30:48.413Z,12.80
2019-05-21T19:33:17.021Z,12.80
2019-05-21T19:35:45.591Z,12.80
2019-05-21T19:38:15.413Z,12.80
2019-05-21T19:40:43.835Z,12.80
2019-05-21T19:43:12.250Z,12.80
2019-05-21T19:45:40.921Z,12.70
2019-05-21T19:48:11.061Z,12.70
2019-05-21T19:50:40.055Z,12.80
2019-05-21T19:53:08.449Z,12.80
2019-05-21T19:55:38.716Z,12.80
2019-05-21T19:58:07.220Z,12.80
2019-05-21T20:00:37.666Z,12.80
2019-05-21T20:03:07.687Z,12.80
2019-05-21T20:05:36.465Z,12.80
2019-05-21T20:08:04.971Z,12.80
2019-05-21T20:10:34.283Z,12.80
2019-05-21T20:13:02.953Z,12.80
2019-05-21T20:15:31.399Z,12.80
2019-05-21T20:18:07.282Z,12.80
2019-05-21T20:20:30.665Z,12.80
2019-05-21T20:23:01.248Z,12.70
2019-05-21T20:25:32.066Z,12.70
2019-05-21T20:28:00.705Z,12.70
2019-05-21T20:30:30.350Z,12.70
2019-05-21T20:32:58.857Z,12.70
2019-05-21T20:35:30.517Z,12.80
2019-05-21T20:37:59.450Z,12.70
2019-05-21T20:40:28.522Z,12.70
2019-05-21T20:42:57.477Z,12.70
2019-05-21T20:45:27.840Z,12.70
2019-05-21T20:47:57.587Z,12.70
2019-05-21T20:50:26.439Z,12.80
2019-05-21T20:52:54.843Z,12.80
2019-05-21T20:55:23.923Z,12.80
2019-05-21T20:57:53.169Z,12.80
2019-05-21T21:00:40.632Z,12.80
2019-05-21T21:03:11.667Z,12.80
2019-05-21T21:05:41.266Z,12.80
2019-05-21T21:08:10.631Z,12.80
2019-05-21T21:10:39.230Z,12.80
2019-05-21T21:13:08.761Z,12.80
2019-05-21T21:15:37.421Z,12.80
2019-05-21T21:18:05.902Z,12.90
2019-05-21T21:20:34.386Z,12.90
2019-05-21T21:23:02.778Z,12.90
2019-05-21T21:25:31.833Z,12.90
2019-05-21T21:28:00.710Z,12.90
2019-05-21T21:30:29.412Z,12.90
2019-05-21T21:32:59.585Z,12.80
2019-05-21T21:35:28.393Z,12.90
2019-05-21T21:37:57.025Z,12.90
2019-05-21T21:40:26.093Z,12.90
2019-05-21T21:42:54.808Z,12.90
2019-05-21T21:45:23.297Z,12.90
2019-05-21T21:47:52.632Z,12.90
2019-05-21T21:50:21.508Z,13.00
2019-05-21T21:52:50.203Z,13.00
2019-05-21T21:55:18.667Z,13.00
2019-05-21T21:57:47.170Z,13.10
2019-05-21T22:00:58.292Z,13.10
2019-05-21T22:03:30.458Z,13.10
2019-05-21T22:06:00.369Z,13.10
2019-05-21T22:08:29.705Z,13.10
2019-05-21T22:10:58.348Z,13.10
2019-05-21T22:13:27.194Z,13.10
2019-05-21T22:15:56.202Z,13.20
2019-05-21T22:18:25.360Z,13.20
2019-05-21T22:20:53.941Z,13.20
2019-05-21T22:23:22.410Z,13.20
2019-05-21T22:25:51.043Z,13.20
2019-05-21T22:28:20.385Z,13.20
2019-05-21T22:30:48.950Z,13.30
2019-05-21T22:33:17.928Z,13.30
2019-05-21T22:35:47.251Z,13.30
2019-05-21T22:38:15.721Z,13.40
2019-05-21T22:40:44.423Z,13.30
2019-05-21T22:43:12.833Z,13.30
2019-05-21T22:45:41.245Z,13.20
2019-05-21T22:48:09.714Z,13.30
2019-05-21T22:50:38.187Z,13.20
2019-05-21T22:53:06.973Z,13.20
2019-05-21T22:55:35.453Z,13.20
2019-05-21T22:58:05.100Z,13.30
2019-05-21T23:00:34.608Z,13.20
2019-05-21T23:03:03.602Z,13.30
2019-05-21T23:05:32.071Z,13.20
2019-05-21T23:08:01.665Z,13.30
2019-05-21T23:10:30.115Z,13.30
2019-05-21T23:12:58.608Z,13.20
2019-05-21T23:15:27.156Z,13.20
2019-05-21T23:17:56.181Z,13.30
2019-05-21T23:20:27.743Z,13.30
2019-05-21T23:22:59.093Z,13.40
2019-05-21T23:25:27.661Z,13.40
2019-05-21T23:27:56.163Z,13.50
2019-05-21T23:30:25.035Z,13.50
2019-05-21T23:32:53.706Z,13.60
2019-05-21T23:35:22.360Z,13.60
2019-05-21T23:37:51.624Z,13.70
2019-05-21T23:40:22.038Z,13.70
2019-05-21T23:42:50.754Z,13.80
2019-05-21T23:45:19.481Z,13.80
2019-05-21T23:47:48.188Z,13.70
2019-05-21T23:50:18.312Z,13.80
2019-05-21T23:52:47.150Z,13.80
2019-05-21T23:55:15.800Z,13.80
2019-05-21T23:57:44.769Z,13.90
